sensor_id;sensor_type;location;lat;lon;timestamp;P1;durP1;ratioP1;P2;durP2;ratioP2
11344;SDS011;5727;42.600;23.028;2022-08-03T00:00:55;6.07;;;1.90;;
11344;SDS011;5727;42.600;23.028;2022-08-03T00:03:23;6.23;;;2.27;;
11344;SDS011;5727;42.600;23.028;2022-08-03T00:05:50;7.03;;;1.90;;
11344;SDS011;5727;42.600;23.028;2022-08-03T00:08:16;3.43;;;1.70;;
11344;SDS011;5727;42.600;23.028;2022-08-03T00:10:43;6.43;;;2.23;;
11344;SDS011;5727;42.600;23.028;2022-08-03T00:13:10;8.73;;;2.57;;
11344;SDS011;5727;42.600;23.028;2022-08-03T00:15:38;10.43;;;2.97;;
11344;SDS011;5727;42.600;23.028;2022-08-03T00:18:06;8.70;;;2.97;;
11344;SDS011;5727;42.600;23.028;2022-08-03T00:20:34;9.47;;;3.10;;
11344;SDS011;5727;42.600;23.028;2022-08-03T00:23:00;11.33;;;3.20;;
11344;SDS011;5727;42.600;23.028;2022-08-03T00:25:27;8.30;;;2.30;;
11344;SDS011;5727;42.600;23.028;2022-08-03T00:27:54;11.70;;;2.57;;
11344;SDS011;5727;42.600;23.028;2022-08-03T00:30:21;7.03;;;2.77;;
11344;SDS011;5727;42.600;23.028;2022-08-03T00:32:47;11.87;;;3.57;;
11344;SDS011;5727;42.600;23.028;2022-08-03T00:35:14;6.40;;;2.70;;
11344;SDS011;5727;42.600;23.028;2022-08-03T00:37:42;13.67;;;2.53;;
11344;SDS011;5727;42.600;23.028;2022-08-03T00:40:10;6.13;;;3.00;;
11344;SDS011;5727;42.600;23.028;2022-08-03T00:42:47;5.23;;;2.20;;
11344;SDS011;5727;42.600;23.028;2022-08-03T00:45:16;8.13;;;2.60;;
11344;SDS011;5727;42.600;23.028;2022-08-03T00:47:43;8.77;;;2.50;;
11344;SDS011;5727;42.600;23.028;2022-08-03T00:50:10;3.87;;;1.83;;
11344;SDS011;5727;42.600;23.028;2022-08-03T00:52:37;4.93;;;1.97;;
11344;SDS011;5727;42.600;23.028;2022-08-03T00:55:06;7.67;;;2.63;;
11344;SDS011;5727;42.600;23.028;2022-08-03T00:57:33;5.27;;;2.10;;
11344;SDS011;5727;42.600;23.028;2022-08-03T01:00:00;6.47;;;1.73;;
11344;SDS011;5727;42.600;23.028;2022-08-03T01:02:27;3.53;;;1.93;;
11344;SDS011;5727;42.600;23.028;2022-08-03T01:04:54;4.50;;;2.00;;
11344;SDS011;5727;42.600;23.028;2022-08-03T01:07:24;5.27;;;2.43;;
11344;SDS011;5727;42.600;23.028;2022-08-03T01:09:59;3.60;;;1.97;;
11344;SDS011;5727;42.600;23.028;2022-08-03T01:12:35;5.10;;;1.70;;
11344;SDS011;5727;42.600;23.028;2022-08-03T01:15:09;4.20;;;2.00;;
11344;SDS011;5727;42.600;23.028;2022-08-03T01:17:43;3.47;;;2.10;;
11344;SDS011;5727;42.600;23.028;2022-08-03T01:20:17;4.33;;;2.20;;
11344;SDS011;5727;42.600;23.028;2022-08-03T01:22:51;4.30;;;1.90;;
11344;SDS011;5727;42.600;23.028;2022-08-03T01:25:58;4.10;;;1.90;;
11344;SDS011;5727;42.600;23.028;2022-08-03T01:28:51;3.00;;;1.90;;
11344;SDS011;5727;42.600;23.028;2022-08-03T01:31:42;4.90;;;2.27;;
11344;SDS011;5727;42.600;23.028;2022-08-03T01:34:14;6.43;;;2.07;;
11344;SDS011;5727;42.600;23.028;2022-08-03T01:36:47;4.20;;;2.00;;
11344;SDS011;5727;42.600;23.028;2022-08-03T01:39:19;6.47;;;2.20;;
11344;SDS011;5727;42.600;23.028;2022-08-03T01:41:47;4.27;;;1.97;;
11344;SDS011;5727;42.600;23.028;2022-08-03T01:44:16;4.43;;;1.90;;
11344;SDS011;5727;42.600;23.028;2022-08-03T01:46:45;5.20;;;2.10;;
11344;SDS011;5727;42.600;23.028;2022-08-03T01:49:15;5.97;;;2.10;;
11344;SDS011;5727;42.600;23.028;2022-08-03T01:51:43;5.00;;;1.90;;
11344;SDS011;5727;42.600;23.028;2022-08-03T01:54:12;5.47;;;2.30;;
11344;SDS011;5727;42.600;23.028;2022-08-03T01:56:40;5.17;;;1.60;;
11344;SDS011;5727;42.600;23.028;2022-08-03T01:59:10;4.70;;;2.00;;
11344;SDS011;5727;42.600;23.028;2022-08-03T02:01:41;8.93;;;2.00;;
11344;SDS011;5727;42.600;23.028;2022-08-03T02:04:10;4.43;;;1.93;;
11344;SDS011;5727;42.600;23.028;2022-08-03T02:06:39;3.73;;;1.80;;
11344;SDS011;5727;42.600;23.028;2022-08-03T02:09:08;7.27;;;2.20;;
11344;SDS011;5727;42.600;23.028;2022-08-03T02:11:34;10.43;;;2.30;;
11344;SDS011;5727;42.600;23.028;2022-08-03T02:14:03;5.00;;;1.90;;
11344;SDS011;5727;42.600;23.028;2022-08-03T02:16:31;7.37;;;2.17;;
11344;SDS011;5727;42.600;23.028;2022-08-03T02:19:00;5.30;;;2.07;;
11344;SDS011;5727;42.600;23.028;2022-08-03T02:21:31;6.07;;;2.67;;
11344;SDS011;5727;42.600;23.028;2022-08-03T02:24:01;10.17;;;2.30;;
11344;SDS011;5727;42.600;23.028;2022-08-03T02:26:29;14.77;;;2.50;;
11344;SDS011;5727;42.600;23.028;2022-08-03T02:28:58;8.83;;;2.70;;
11344;SDS011;5727;42.600;23.028;2022-08-03T02:31:29;13.17;;;2.07;;
11344;SDS011;5727;42.600;23.028;2022-08-03T02:34:00;10.23;;;3.00;;
11344;SDS011;5727;42.600;23.028;2022-08-03T02:36:31;6.47;;;2.30;;
11344;SDS011;5727;42.600;23.028;2022-08-03T02:39:02;10.80;;;3.27;;
11344;SDS011;5727;42.600;23.028;2022-08-03T02:41:30;6.87;;;2.60;;
11344;SDS011;5727;42.600;23.028;2022-08-03T02:44:01;8.70;;;2.67;;
11344;SDS011;5727;42.600;23.028;2022-08-03T02:46:32;5.23;;;2.20;;
11344;SDS011;5727;42.600;23.028;2022-08-03T02:49:03;10.97;;;2.57;;
11344;SDS011;5727;42.600;23.028;2022-08-03T02:51:33;5.20;;;2.27;;
11344;SDS011;5727;42.600;23.028;2022-08-03T02:54:02;8.10;;;2.90;;
11344;SDS011;5727;42.600;23.028;2022-08-03T02:56:30;5.57;;;2.83;;
11344;SDS011;5727;42.600;23.028;2022-08-03T02:58:59;4.80;;;2.30;;
11344;SDS011;5727;42.600;23.028;2022-08-03T03:01:27;4.83;;;2.53;;
11344;SDS011;5727;42.600;23.028;2022-08-03T03:03:56;6.33;;;2.87;;
11344;SDS011;5727;42.600;23.028;2022-08-03T03:06:24;5.83;;;2.60;;
11344;SDS011;5727;42.600;23.028;2022-08-03T03:08:53;7.63;;;2.77;;
11344;SDS011;5727;42.600;23.028;2022-08-03T03:11:21;3.67;;;2.40;;
11344;SDS011;5727;42.600;23.028;2022-08-03T03:13:50;7.03;;;3.00;;
11344;SDS011;5727;42.600;23.028;2022-08-03T03:16:18;5.00;;;2.60;;
11344;SDS011;5727;42.600;23.028;2022-08-03T03:18:46;10.80;;;3.27;;
11344;SDS011;5727;42.600;23.028;2022-08-03T03:21:15;5.63;;;2.73;;
11344;SDS011;5727;42.600;23.028;2022-08-03T03:23:44;8.63;;;2.90;;
11344;SDS011;5727;42.600;23.028;2022-08-03T03:26:13;4.93;;;2.93;;
11344;SDS011;5727;42.600;23.028;2022-08-03T03:28:40;6.40;;;2.90;;
11344;SDS011;5727;42.600;23.028;2022-08-03T03:31:08;8.67;;;2.60;;
11344;SDS011;5727;42.600;23.028;2022-08-03T03:33:35;8.17;;;2.90;;
11344;SDS011;5727;42.600;23.028;2022-08-03T03:36:03;8.27;;;2.90;;
11344;SDS011;5727;42.600;23.028;2022-08-03T03:38:30;8.30;;;3.50;;
11344;SDS011;5727;42.600;23.028;2022-08-03T03:40:58;11.60;;;3.50;;
11344;SDS011;5727;42.600;23.028;2022-08-03T03:43:26;7.33;;;2.63;;
11344;SDS011;5727;42.600;23.028;2022-08-03T03:45:54;9.90;;;3.10;;
11344;SDS011;5727;42.600;23.028;2022-08-03T03:48:23;8.33;;;3.30;;
11344;SDS011;5727;42.600;23.028;2022-08-03T03:50:50;9.40;;;3.70;;
11344;SDS011;5727;42.600;23.028;2022-08-03T03:53:17;5.23;;;3.10;;
11344;SDS011;5727;42.600;23.028;2022-08-03T03:55:44;8.63;;;3.83;;
11344;SDS011;5727;42.600;23.028;2022-08-03T03:58:10;10.57;;;3.30;;
11344;SDS011;5727;42.600;23.028;2022-08-03T04:00:38;5.00;;;2.90;;
11344;SDS011;5727;42.600;23.028;2022-08-03T04:03:06;8.77;;;3.10;;
11344;SDS011;5727;42.600;23.028;2022-08-03T04:05:35;12.37;;;3.40;;
11344;SDS011;5727;42.600;23.028;2022-08-03T04:08:20;4.90;;;2.97;;
11344;SDS011;5727;42.600;23.028;2022-08-03T04:11:06;5.87;;;2.97;;
11344;SDS011;5727;42.600;23.028;2022-08-03T04:13:38;6.03;;;3.10;;
11344;SDS011;5727;42.600;23.028;2022-08-03T04:16:09;7.60;;;3.00;;
11344;SDS011;5727;42.600;23.028;2022-08-03T04:18:40;4.57;;;2.80;;
11344;SDS011;5727;42.600;23.028;2022-08-03T04:21:11;4.67;;;3.10;;
11344;SDS011;5727;42.600;23.028;2022-08-03T04:23:40;9.67;;;3.10;;
11344;SDS011;5727;42.600;23.028;2022-08-03T04:26:11;6.80;;;2.97;;
11344;SDS011;5727;42.600;23.028;2022-08-03T04:28:40;7.67;;;3.57;;
11344;SDS011;5727;42.600;23.028;2022-08-03T04:31:11;9.23;;;3.63;;
11344;SDS011;5727;42.600;23.028;2022-08-03T04:33:40;5.30;;;3.30;;
11344;SDS011;5727;42.600;23.028;2022-08-03T04:36:11;8.40;;;4.23;;
11344;SDS011;5727;42.600;23.028;2022-08-03T04:38:43;8.73;;;3.90;;
11344;SDS011;5727;42.600;23.028;2022-08-03T04:41:19;13.60;;;4.30;;
11344;SDS011;5727;42.600;23.028;2022-08-03T04:43:49;9.83;;;3.90;;
11344;SDS011;5727;42.600;23.028;2022-08-03T04:46:22;5.93;;;3.27;;
11344;SDS011;5727;42.600;23.028;2022-08-03T04:48:53;11.80;;;3.80;;
11344;SDS011;5727;42.600;23.028;2022-08-03T04:51:20;10.00;;;3.50;;
11344;SDS011;5727;42.600;23.028;2022-08-03T04:53:48;9.33;;;3.07;;
11344;SDS011;5727;42.600;23.028;2022-08-03T04:56:15;9.93;;;3.80;;
11344;SDS011;5727;42.600;23.028;2022-08-03T04:58:41;16.50;;;3.67;;
11344;SDS011;5727;42.600;23.028;2022-08-03T05:01:08;9.50;;;3.30;;
11344;SDS011;5727;42.600;23.028;2022-08-03T05:03:36;11.50;;;3.17;;
11344;SDS011;5727;42.600;23.028;2022-08-03T05:06:03;18.30;;;4.13;;
11344;SDS011;5727;42.600;23.028;2022-08-03T05:08:30;15.93;;;4.07;;
11344;SDS011;5727;42.600;23.028;2022-08-03T05:10:57;15.40;;;3.70;;
11344;SDS011;5727;42.600;23.028;2022-08-03T05:13:23;19.63;;;4.43;;
11344;SDS011;5727;42.600;23.028;2022-08-03T05:15:50;18.60;;;4.07;;
11344;SDS011;5727;42.600;23.028;2022-08-03T05:18:17;12.30;;;4.10;;
11344;SDS011;5727;42.600;23.028;2022-08-03T05:20:45;14.70;;;4.10;;
11344;SDS011;5727;42.600;23.028;2022-08-03T05:23:12;17.33;;;4.33;;
11344;SDS011;5727;42.600;23.028;2022-08-03T05:25:38;8.87;;;3.60;;
11344;SDS011;5727;42.600;23.028;2022-08-03T05:28:05;27.73;;;4.80;;
11344;SDS011;5727;42.600;23.028;2022-08-03T05:30:32;14.67;;;4.70;;
11344;SDS011;5727;42.600;23.028;2022-08-03T05:32:59;12.17;;;4.20;;
11344;SDS011;5727;42.600;23.028;2022-08-03T05:35:26;8.63;;;3.50;;
11344;SDS011;5727;42.600;23.028;2022-08-03T05:37:55;8.40;;;3.47;;
11344;SDS011;5727;42.600;23.028;2022-08-03T05:40:22;9.17;;;3.93;;
11344;SDS011;5727;42.600;23.028;2022-08-03T05:42:49;6.87;;;3.30;;
11344;SDS011;5727;42.600;23.028;2022-08-03T05:45:15;9.70;;;3.37;;
11344;SDS011;5727;42.600;23.028;2022-08-03T05:47:43;13.80;;;4.13;;
11344;SDS011;5727;42.600;23.028;2022-08-03T05:50:10;16.33;;;4.20;;
11344;SDS011;5727;42.600;23.028;2022-08-03T05:52:36;14.43;;;4.20;;
11344;SDS011;5727;42.600;23.028;2022-08-03T05:55:05;18.23;;;3.97;;
11344;SDS011;5727;42.600;23.028;2022-08-03T05:57:33;13.40;;;4.70;;
11344;SDS011;5727;42.600;23.028;2022-08-03T06:00:00;14.53;;;4.77;;
11344;SDS011;5727;42.600;23.028;2022-08-03T06:02:27;12.10;;;3.90;;
11344;SDS011;5727;42.600;23.028;2022-08-03T06:04:55;11.17;;;3.77;;
11344;SDS011;5727;42.600;23.028;2022-08-03T06:07:22;10.80;;;4.03;;
11344;SDS011;5727;42.600;23.028;2022-08-03T06:09:49;12.87;;;3.57;;
11344;SDS011;5727;42.600;23.028;2022-08-03T06:12:17;16.30;;;3.67;;
11344;SDS011;5727;42.600;23.028;2022-08-03T06:14:46;14.87;;;3.43;;
11344;SDS011;5727;42.600;23.028;2022-08-03T06:17:12;8.70;;;3.50;;
11344;SDS011;5727;42.600;23.028;2022-08-03T06:19:39;19.07;;;3.80;;
11344;SDS011;5727;42.600;23.028;2022-08-03T06:22:06;9.40;;;2.80;;
11344;SDS011;5727;42.600;23.028;2022-08-03T06:24:33;9.67;;;3.10;;
11344;SDS011;5727;42.600;23.028;2022-08-03T06:26:59;6.17;;;3.03;;
11344;SDS011;5727;42.600;23.028;2022-08-03T06:29:28;6.10;;;2.80;;
11344;SDS011;5727;42.600;23.028;2022-08-03T06:31:54;8.87;;;3.20;;
11344;SDS011;5727;42.600;23.028;2022-08-03T06:34:21;8.10;;;2.60;;
11344;SDS011;5727;42.600;23.028;2022-08-03T06:36:48;5.83;;;2.67;;
11344;SDS011;5727;42.600;23.028;2022-08-03T06:39:15;10.47;;;3.80;;
11344;SDS011;5727;42.600;23.028;2022-08-03T06:41:42;9.40;;;2.63;;
11344;SDS011;5727;42.600;23.028;2022-08-03T06:44:09;10.67;;;3.03;;
11344;SDS011;5727;42.600;23.028;2022-08-03T06:46:38;10.30;;;2.90;;
11344;SDS011;5727;42.600;23.028;2022-08-03T06:49:06;5.00;;;2.30;;
11344;SDS011;5727;42.600;23.028;2022-08-03T06:51:33;4.63;;;2.10;;
11344;SDS011;5727;42.600;23.028;2022-08-03T06:54:00;6.37;;;2.63;;
11344;SDS011;5727;42.600;23.028;2022-08-03T06:56:26;8.63;;;2.60;;
11344;SDS011;5727;42.600;23.028;2022-08-03T06:58:53;7.23;;;2.53;;
11344;SDS011;5727;42.600;23.028;2022-08-03T07:01:20;10.17;;;2.70;;
11344;SDS011;5727;42.600;23.028;2022-08-03T07:03:48;5.87;;;2.20;;
11344;SDS011;5727;42.600;23.028;2022-08-03T07:06:18;6.37;;;2.10;;
11344;SDS011;5727;42.600;23.028;2022-08-03T07:08:45;4.03;;;1.73;;
11344;SDS011;5727;42.600;23.028;2022-08-03T07:11:11;4.47;;;2.50;;
11344;SDS011;5727;42.600;23.028;2022-08-03T07:13:39;7.73;;;1.90;;
11344;SDS011;5727;42.600;23.028;2022-08-03T07:16:06;4.23;;;2.03;;
11344;SDS011;5727;42.600;23.028;2022-08-03T07:18:33;5.70;;;1.90;;
11344;SDS011;5727;42.600;23.028;2022-08-03T07:21:04;8.47;;;2.17;;
11344;SDS011;5727;42.600;23.028;2022-08-03T07:23:32;8.43;;;1.80;;
11344;SDS011;5727;42.600;23.028;2022-08-03T07:25:58;4.60;;;1.60;;
11344;SDS011;5727;42.600;23.028;2022-08-03T07:28:25;3.63;;;1.60;;
11344;SDS011;5727;42.600;23.028;2022-08-03T07:30:52;5.50;;;1.77;;
11344;SDS011;5727;42.600;23.028;2022-08-03T07:33:19;7.13;;;2.20;;
11344;SDS011;5727;42.600;23.028;2022-08-03T07:35:46;5.33;;;1.60;;
11344;SDS011;5727;42.600;23.028;2022-08-03T07:38:14;4.70;;;1.23;;
11344;SDS011;5727;42.600;23.028;2022-08-03T07:40:40;9.30;;;1.90;;
11344;SDS011;5727;42.600;23.028;2022-08-03T07:43:07;4.73;;;1.53;;
11344;SDS011;5727;42.600;23.028;2022-08-03T07:45:34;1.47;;;1.27;;
11344;SDS011;5727;42.600;23.028;2022-08-03T07:48:01;2.20;;;1.20;;
11344;SDS011;5727;42.600;23.028;2022-08-03T07:50:27;4.93;;;1.30;;
11344;SDS011;5727;42.600;23.028;2022-08-03T07:52:54;1.93;;;0.90;;
11344;SDS011;5727;42.600;23.028;2022-08-03T07:55:23;2.77;;;0.97;;
11344;SDS011;5727;42.600;23.028;2022-08-03T07:57:58;2.03;;;1.30;;
11344;SDS011;5727;42.600;23.028;2022-08-03T08:00:29;5.80;;;1.20;;
11344;SDS011;5727;42.600;23.028;2022-08-03T08:02:56;2.37;;;0.80;;
11344;SDS011;5727;42.600;23.028;2022-08-03T08:05:23;2.80;;;1.30;;
11344;SDS011;5727;42.600;23.028;2022-08-03T08:07:50;1.00;;;0.80;;
11344;SDS011;5727;42.600;23.028;2022-08-03T08:10:17;2.60;;;1.00;;
11344;SDS011;5727;42.600;23.028;2022-08-03T08:12:46;3.03;;;0.90;;
11344;SDS011;5727;42.600;23.028;2022-08-03T08:15:13;3.33;;;0.80;;
11344;SDS011;5727;42.600;23.028;2022-08-03T08:17:40;1.27;;;0.80;;
11344;SDS011;5727;42.600;23.028;2022-08-03T08:20:09;3.23;;;0.80;;
11344;SDS011;5727;42.600;23.028;2022-08-03T08:22:36;2.97;;;0.90;;
11344;SDS011;5727;42.600;23.028;2022-08-03T08:25:03;5.60;;;1.30;;
11344;SDS011;5727;42.600;23.028;2022-08-03T08:27:30;1.43;;;0.70;;
11344;SDS011;5727;42.600;23.028;2022-08-03T08:29:58;2.07;;;0.93;;
11344;SDS011;5727;42.600;23.028;2022-08-03T08:32:25;1.37;;;0.90;;
11344;SDS011;5727;42.600;23.028;2022-08-03T08:34:52;1.90;;;1.07;;
11344;SDS011;5727;42.600;23.028;2022-08-03T08:37:18;2.23;;;1.00;;
11344;SDS011;5727;42.600;23.028;2022-08-03T08:39:45;5.33;;;1.07;;
11344;SDS011;5727;42.600;23.028;2022-08-03T08:42:12;1.23;;;0.77;;
11344;SDS011;5727;42.600;23.028;2022-08-03T08:44:40;2.20;;;0.80;;
11344;SDS011;5727;42.600;23.028;2022-08-03T08:47:08;3.17;;;1.07;;
11344;SDS011;5727;42.600;23.028;2022-08-03T08:49:35;2.60;;;0.87;;
11344;SDS011;5727;42.600;23.028;2022-08-03T08:52:05;1.60;;;0.80;;
11344;SDS011;5727;42.600;23.028;2022-08-03T08:54:33;1.47;;;0.70;;
11344;SDS011;5727;42.600;23.028;2022-08-03T08:57:06;1.63;;;0.90;;
11344;SDS011;5727;42.600;23.028;2022-08-03T08:59:34;4.13;;;1.10;;
11344;SDS011;5727;42.600;23.028;2022-08-03T09:02:02;2.27;;;0.90;;
11344;SDS011;5727;42.600;23.028;2022-08-03T09:04:30;1.87;;;0.70;;
11344;SDS011;5727;42.600;23.028;2022-08-03T09:06:58;2.10;;;0.97;;
11344;SDS011;5727;42.600;23.028;2022-08-03T09:09:26;0.93;;;0.70;;
11344;SDS011;5727;42.600;23.028;2022-08-03T09:11:53;3.50;;;0.67;;
11344;SDS011;5727;42.600;23.028;2022-08-03T09:14:20;3.90;;;0.80;;
11344;SDS011;5727;42.600;23.028;2022-08-03T09:16:56;2.83;;;0.80;;
11344;SDS011;5727;42.600;23.028;2022-08-03T09:19:27;4.63;;;0.80;;
11344;SDS011;5727;42.600;23.028;2022-08-03T09:24:38;1.80;;;0.70;;
11344;SDS011;5727;42.600;23.028;2022-08-03T09:27:20;2.03;;;1.10;;
11344;SDS011;5727;42.600;23.028;2022-08-03T09:29:47;1.87;;;0.93;;
11344;SDS011;5727;42.600;23.028;2022-08-03T09:32:15;2.80;;;0.80;;
11344;SDS011;5727;42.600;23.028;2022-08-03T09:34:46;3.70;;;1.00;;
11344;SDS011;5727;42.600;23.028;2022-08-03T09:37:16;1.87;;;0.90;;
11344;SDS011;5727;42.600;23.028;2022-08-03T09:39:45;2.43;;;0.83;;
11344;SDS011;5727;42.600;23.028;2022-08-03T09:42:13;1.70;;;0.90;;
11344;SDS011;5727;42.600;23.028;2022-08-03T09:44:42;8.07;;;1.20;;
11344;SDS011;5727;42.600;23.028;2022-08-03T09:47:10;2.07;;;1.50;;
11344;SDS011;5727;42.600;23.028;2022-08-03T09:49:38;2.80;;;1.10;;
11344;SDS011;5727;42.600;23.028;2022-08-03T09:52:11;2.23;;;1.23;;
11344;SDS011;5727;42.600;23.028;2022-08-03T09:54:40;2.53;;;0.93;;
11344;SDS011;5727;42.600;23.028;2022-08-03T09:57:09;1.87;;;1.33;;
11344;SDS011;5727;42.600;23.028;2022-08-03T09:59:47;2.37;;;0.97;;
11344;SDS011;5727;42.600;23.028;2022-08-03T10:02:20;3.20;;;1.20;;
11344;SDS011;5727;42.600;23.028;2022-08-03T10:04:48;3.23;;;1.37;;
11344;SDS011;5727;42.600;23.028;2022-08-03T10:07:17;1.93;;;1.17;;
11344;SDS011;5727;42.600;23.028;2022-08-03T10:09:53;5.20;;;1.90;;
11344;SDS011;5727;42.600;23.028;2022-08-03T10:12:21;3.57;;;1.50;;
11344;SDS011;5727;42.600;23.028;2022-08-03T10:14:49;3.10;;;1.73;;
11344;SDS011;5727;42.600;23.028;2022-08-03T10:17:17;3.17;;;1.77;;
11344;SDS011;5727;42.600;23.028;2022-08-03T10:19:44;2.13;;;1.63;;
11344;SDS011;5727;42.600;23.028;2022-08-03T10:22:12;1.58;;;1.48;;
11344;SDS011;5727;42.600;23.028;2022-08-03T10:24:43;2.70;;;1.50;;
11344;SDS011;5727;42.600;23.028;2022-08-03T10:27:16;2.30;;;1.83;;
11344;SDS011;5727;42.600;23.028;2022-08-03T10:29:46;8.20;;;2.08;;
11344;SDS011;5727;42.600;23.028;2022-08-03T10:32:18;2.50;;;2.13;;
11344;SDS011;5727;42.600;23.028;2022-08-03T10:34:49;2.80;;;2.50;;
11344;SDS011;5727;42.600;23.028;2022-08-03T10:37:16;5.05;;;3.75;;
11344;SDS011;5727;42.600;23.028;2022-08-03T10:39:44;4.60;;;4.05;;
11344;SDS011;5727;42.600;23.028;2022-08-03T10:42:23;6.43;;;4.13;;
11344;SDS011;5727;42.600;23.028;2022-08-03T10:44:52;5.65;;;4.40;;
11344;SDS011;5727;42.600;23.028;2022-08-03T10:47:25;8.23;;;3.33;;
11344;SDS011;5727;42.600;23.028;2022-08-03T10:49:53;3.03;;;2.35;;
11344;SDS011;5727;42.600;23.028;2022-08-03T10:52:20;3.80;;;3.40;;
11344;SDS011;5727;42.600;23.028;2022-08-03T10:54:47;4.05;;;3.65;;
11344;SDS011;5727;42.600;23.028;2022-08-03T10:57:45;5.47;;;3.47;;
11344;SDS011;5727;42.600;23.028;2022-08-03T11:00:13;3.78;;;2.78;;
11344;SDS011;5727;42.600;23.028;2022-08-03T11:05:42;4.25;;;2.63;;
11344;SDS011;5727;42.600;23.028;2022-08-03T11:08:16;3.13;;;2.83;;
11344;SDS011;5727;42.600;23.028;2022-08-03T11:10:48;2.47;;;2.28;;
11344;SDS011;5727;42.600;23.028;2022-08-03T11:13:19;3.30;;;2.45;;
11344;SDS011;5727;42.600;23.028;2022-08-03T11:15:48;4.13;;;2.80;;
11344;SDS011;5727;42.600;23.028;2022-08-03T11:18:15;7.47;;;2.25;;
11344;SDS011;5727;42.600;23.028;2022-08-03T11:20:43;4.63;;;2.20;;
11344;SDS011;5727;42.600;23.028;2022-08-03T11:23:11;3.60;;;2.35;;
11344;SDS011;5727;42.600;23.028;2022-08-03T11:28:35;2.88;;;1.77;;
11344;SDS011;5727;42.600;23.028;2022-08-03T11:34:14;4.25;;;1.73;;
11344;SDS011;5727;42.600;23.028;2022-08-03T11:39:49;1.40;;;0.95;;
11344;SDS011;5727;42.600;23.028;2022-08-03T11:45:09;2.70;;;1.20;;
11344;SDS011;5727;42.600;23.028;2022-08-03T11:47:37;3.20;;;1.20;;
11344;SDS011;5727;42.600;23.028;2022-08-03T11:50:04;1.50;;;0.75;;
11344;SDS011;5727;42.600;23.028;2022-08-03T11:52:33;1.33;;;1.02;;
11344;SDS011;5727;42.600;23.028;2022-08-03T11:55:02;3.22;;;1.20;;
11344;SDS011;5727;42.600;23.028;2022-08-03T11:57:35;5.15;;;1.40;;
11344;SDS011;5727;42.600;23.028;2022-08-03T12:00:02;6.60;;;1.17;;
11344;SDS011;5727;42.600;23.028;2022-08-03T12:02:53;1.63;;;0.80;;
11344;SDS011;5727;42.600;23.028;2022-08-03T12:05:34;1.40;;;1.05;;
11344;SDS011;5727;42.600;23.028;2022-08-03T12:08:05;6.40;;;0.98;;
11344;SDS011;5727;42.600;23.028;2022-08-03T12:10:33;1.88;;;1.02;;
11344;SDS011;5727;42.600;23.028;2022-08-03T12:13:01;3.88;;;1.13;;
11344;SDS011;5727;42.600;23.028;2022-08-03T12:15:32;4.32;;;0.98;;
11344;SDS011;5727;42.600;23.028;2022-08-03T12:18:02;4.93;;;1.27;;
11344;SDS011;5727;42.600;23.028;2022-08-03T12:20:37;1.38;;;0.70;;
11344;SDS011;5727;42.600;23.028;2022-08-03T12:23:05;1.25;;;0.90;;
11344;SDS011;5727;42.600;23.028;2022-08-03T12:25:37;2.25;;;0.70;;
11344;SDS011;5727;42.600;23.028;2022-08-03T12:28:05;4.00;;;1.30;;
11344;SDS011;5727;42.600;23.028;2022-08-03T12:30:43;2.60;;;0.80;;
11344;SDS011;5727;42.600;23.028;2022-08-03T12:33:23;1.35;;;0.73;;
11344;SDS011;5727;42.600;23.028;2022-08-03T12:36:01;3.50;;;0.75;;
11344;SDS011;5727;42.600;23.028;2022-08-03T12:38:30;2.90;;;0.80;;
11344;SDS011;5727;42.600;23.028;2022-08-03T12:40:58;2.65;;;0.50;;
11344;SDS011;5727;42.600;23.028;2022-08-03T12:43:27;2.45;;;0.57;;
11344;SDS011;5727;42.600;23.028;2022-08-03T12:46:13;1.33;;;0.55;;
11344;SDS011;5727;42.600;23.028;2022-08-03T12:49:04;2.72;;;0.50;;
11344;SDS011;5727;42.600;23.028;2022-08-03T12:51:33;1.17;;;0.50;;
11344;SDS011;5727;42.600;23.028;2022-08-03T12:54:01;0.68;;;0.40;;
11344;SDS011;5727;42.600;23.028;2022-08-03T12:56:28;1.25;;;0.40;;
11344;SDS011;5727;42.600;23.028;2022-08-03T12:58:55;1.60;;;0.30;;
11344;SDS011;5727;42.600;23.028;2022-08-03T13:01:22;0.63;;;0.43;;
11344;SDS011;5727;42.600;23.028;2022-08-03T13:03:51;1.60;;;0.40;;
11344;SDS011;5727;42.600;23.028;2022-08-03T13:06:21;0.80;;;0.50;;
11344;SDS011;5727;42.600;23.028;2022-08-03T13:08:49;0.73;;;0.30;;
11344;SDS011;5727;42.600;23.028;2022-08-03T13:11:27;1.10;;;0.43;;
11344;SDS011;5727;42.600;23.028;2022-08-03T13:13:55;0.80;;;0.50;;
11344;SDS011;5727;42.600;23.028;2022-08-03T13:16:22;1.23;;;0.57;;
11344;SDS011;5727;42.600;23.028;2022-08-03T13:18:50;2.10;;;0.70;;
11344;SDS011;5727;42.600;23.028;2022-08-03T13:21:19;2.53;;;0.70;;
11344;SDS011;5727;42.600;23.028;2022-08-03T13:23:47;3.75;;;0.93;;
11344;SDS011;5727;42.600;23.028;2022-08-03T13:26:14;2.72;;;1.05;;
11344;SDS011;5727;42.600;23.028;2022-08-03T13:28:40;2.40;;;0.90;;
11344;SDS011;5727;42.600;23.028;2022-08-03T13:31:07;1.42;;;0.80;;
11344;SDS011;5727;42.600;23.028;2022-08-03T13:33:34;5.38;;;1.10;;
11344;SDS011;5727;42.600;23.028;2022-08-03T13:36:01;3.28;;;0.90;;
11344;SDS011;5727;42.600;23.028;2022-08-03T13:38:29;1.88;;;1.02;;
11344;SDS011;5727;42.600;23.028;2022-08-03T13:40:56;2.47;;;1.15;;
11344;SDS011;5727;42.600;23.028;2022-08-03T13:43:26;3.25;;;1.25;;
11344;SDS011;5727;42.600;23.028;2022-08-03T13:45:52;1.35;;;0.77;;
11344;SDS011;5727;42.600;23.028;2022-08-03T13:48:19;3.55;;;0.90;;
11344;SDS011;5727;42.600;23.028;2022-08-03T13:50:46;2.80;;;1.02;;
11344;SDS011;5727;42.600;23.028;2022-08-03T13:53:12;2.30;;;0.93;;
11344;SDS011;5727;42.600;23.028;2022-08-03T13:55:40;4.25;;;1.20;;
11344;SDS011;5727;42.600;23.028;2022-08-03T13:58:07;2.25;;;0.90;;
11344;SDS011;5727;42.600;23.028;2022-08-03T14:00:36;1.52;;;0.80;;
11344;SDS011;5727;42.600;23.028;2022-08-03T14:03:03;5.75;;;1.10;;
11344;SDS011;5727;42.600;23.028;2022-08-03T14:05:30;3.45;;;0.80;;
11344;SDS011;5727;42.600;23.028;2022-08-03T14:07:57;4.95;;;1.20;;
11344;SDS011;5727;42.600;23.028;2022-08-03T14:10:25;3.92;;;1.30;;
11344;SDS011;5727;42.600;23.028;2022-08-03T14:12:53;4.82;;;1.30;;
11344;SDS011;5727;42.600;23.028;2022-08-03T14:15:27;3.65;;;1.10;;
11344;SDS011;5727;42.600;23.028;2022-08-03T14:17:54;2.05;;;0.60;;
11344;SDS011;5727;42.600;23.028;2022-08-03T14:20:21;1.20;;;0.77;;
11344;SDS011;5727;42.600;23.028;2022-08-03T14:22:48;2.58;;;0.88;;
11344;SDS011;5727;42.600;23.028;2022-08-03T14:25:14;1.85;;;0.98;;
11344;SDS011;5727;42.600;23.028;2022-08-03T14:27:41;3.00;;;1.20;;
11344;SDS011;5727;42.600;23.028;2022-08-03T14:30:10;3.72;;;1.10;;
11344;SDS011;5727;42.600;23.028;2022-08-03T14:32:37;4.80;;;1.30;;
11344;SDS011;5727;42.600;23.028;2022-08-03T14:35:05;9.68;;;0.90;;
11344;SDS011;5727;42.600;23.028;2022-08-03T14:37:32;3.95;;;1.13;;
11344;SDS011;5727;42.600;23.028;2022-08-03T14:40:00;1.45;;;0.70;;
11344;SDS011;5727;42.600;23.028;2022-08-03T14:42:27;3.50;;;1.00;;
11344;SDS011;5727;42.600;23.028;2022-08-03T14:44:53;2.47;;;0.77;;
11344;SDS011;5727;42.600;23.028;2022-08-03T14:47:21;2.70;;;0.90;;
11344;SDS011;5727;42.600;23.028;2022-08-03T14:49:48;2.42;;;0.93;;
11344;SDS011;5727;42.600;23.028;2022-08-03T14:52:15;2.28;;;1.10;;
11344;SDS011;5727;42.600;23.028;2022-08-03T14:54:42;1.75;;;0.80;;
11344;SDS011;5727;42.600;23.028;2022-08-03T14:57:10;1.83;;;0.65;;
11344;SDS011;5727;42.600;23.028;2022-08-03T14:59:37;1.63;;;0.68;;
11344;SDS011;5727;42.600;23.028;2022-08-03T15:02:03;4.03;;;0.70;;
11344;SDS011;5727;42.600;23.028;2022-08-03T15:04:32;2.20;;;0.80;;
11344;SDS011;5727;42.600;23.028;2022-08-03T15:06:58;4.20;;;1.00;;
11344;SDS011;5727;42.600;23.028;2022-08-03T15:09:25;1.73;;;0.90;;
11344;SDS011;5727;42.600;23.028;2022-08-03T15:11:52;1.40;;;0.90;;
11344;SDS011;5727;42.600;23.028;2022-08-03T15:14:19;2.93;;;0.90;;